Time;durP1;ratioP1;P1;durP2;ratioP2;P2;SDS_P1;SDS_P2;PMS_P1;PMS_P2;Temp;Humidity;BMP_temperature;BMP_pressure;BME280_temperature;BME280_humidity;BME280_pressure;Samples;Min_cycle;Max_cycle;Signal;HPM_P1;HPM_P2
2022/11/20 00:01:35;;;;;;;4.43;3.17;;;2.00;99.90;;;;;;5006810;28;20230;-43
2022/11/20 00:04:02;;;;;;;5.10;3.20;;;2.00;99.90;;;;;;5016951;28;20228;-42
2022/11/20 00:06:30;;;;;;;4.00;3.30;;;2.10;99.90;;;;;;5010816;28;20904;-42
2022/11/20 00:08:59;;;;;;;5.00;3.43;;;2.10;99.90;;;;;;5023048;28;20578;-43
2022/11/20 00:11:29;;;;;;;4.90;3.63;;;2.10;99.90;;;;;;5003688;28;20207;-42
2022/11/20 00:13:57;;;;;;;4.50;2.80;;;2.00;99.90;;;;;;5021979;28;20580;-42
2022/11/20 00:16:26;;;;;;;5.13;3.90;;;2.10;99.90;;;;;;5013554;28;20220;-43
2022/11/20 00:18:53;;;;;;;3.73;2.83;;;2.10;99.90;;;;;;5023382;28;20215;-42
2022/11/20 00:21:22;;;;;;;2.93;2.63;;;2.10;99.90;;;;;;5020498;28;20233;-44
2022/11/20 00:23:49;;;;;;;3.30;3.00;;;2.10;99.90;;;;;;5022929;28;20243;-44
2022/11/20 00:26:18;;;;;;;5.47;3.60;;;2.10;99.90;;;;;;5006461;28;20231;-42
2022/11/20 00:28:51;;;;;;;5.13;3.07;;;2.10;99.90;;;;;;5017054;28;20250;-42
2022/11/20 00:31:19;;;;;;;5.13;3.37;;;2.10;99.90;;;;;;5014220;28;20664;-43
2022/11/20 00:33:46;;;;;;;3.20;2.90;;;2.10;99.90;;;;;;5021337;28;20196;-41
2022/11/20 00:36:15;;;;;;;6.40;3.00;;;2.10;99.90;;;;;;5021580;28;20228;-45
2022/11/20 00:38:42;;;;;;;4.03;3.03;;;2.10;99.90;;;;;;5021099;28;20192;-41
2022/11/20 00:41:11;;;;;;;4.27;3.20;;;2.10;99.90;;;;;;5007871;28;20207;-42
2022/11/20 00:43:39;;;;;;;4.60;3.30;;;2.10;99.90;;;;;;5020008;28;20223;-42
2022/11/20 00:46:10;;;;;;;5.30;3.03;;;2.10;99.90;;;;;;5023059;28;20302;-44
2022/11/20 00:48:37;;;;;;;5.00;3.00;;;2.10;99.90;;;;;;5015084;28;20204;-42
2022/11/20 00:51:04;;;;;;;3.37;2.90;;;2.10;99.90;;;;;;5026735;28;20258;-43
2022/11/20 00:53:31;;;;;;;4.90;3.40;;;2.00;99.90;;;;;;5022801;28;20230;-42
2022/11/20 00:56:00;;;;;;;3.63;3.27;;;2.00;99.90;;;;;;5012402;28;20593;-44
2022/11/20 00:58:31;;;;;;;4.03;3.63;;;2.00;99.90;;;;;;5022711;28;20199;-43
2022/11/20 01:01:01;;;;;;;4.83;2.93;;;2.10;99.90;;;;;;5027004;28;20207;-42
2022/11/20 01:03:31;;;;;;;4.77;3.07;;;2.10;99.90;;;;;;5016207;28;20719;-42
2022/11/20 01:06:01;;;;;;;4.73;2.87;;;2.10;99.90;;;;;;5026510;28;20219;-44
2022/11/20 01:08:30;;;;;;;4.07;3.03;;;2.10;99.90;;;;;;5023118;28;20800;-42
2022/11/20 01:11:00;;;;;;;4.77;3.40;;;2.10;99.90;;;;;;5026793;28;20207;-42
2022/11/20 01:13:39;;;;;;;4.13;2.53;;;2.10;99.90;;;;;;5007579;28;20211;-41
2022/11/20 01:16:08;;;;;;;4.20;2.60;;;2.10;99.90;;;;;;5021157;28;20302;-43
2022/11/20 01:18:37;;;;;;;3.77;3.40;;;2.10;99.90;;;;;;5017573;28;20285;-42
2022/11/20 01:21:07;;;;;;;5.00;2.90;;;2.00;99.90;;;;;;5026554;28;20203;-41
2022/11/20 01:23:35;;;;;;;3.17;2.50;;;2.00;99.90;;;;;;5022795;28;20952;-42
2022/11/20 01:26:03;;;;;;;4.27;2.90;;;2.10;99.90;;;;;;5026396;28;20282;-44
2022/11/20 01:28:31;;;;;;;2.83;2.50;;;2.10;99.90;;;;;;5007615;28;20248;-42
2022/11/20 01:30:58;;;;;;;3.57;3.07;;;2.10;99.90;;;;;;5026015;28;20557;-41
2022/11/20 01:33:25;;;;;;;3.70;2.77;;;2.10;99.90;;;;;;5015830;28;20211;-43
2022/11/20 01:35:54;;;;;;;3.97;3.27;;;2.10;99.90;;;;;;5025934;28;20234;-42
2022/11/20 01:38:22;;;;;;;4.20;3.07;;;2.10;99.90;;;;;;5023404;28;20220;-45
2022/11/20 01:40:55;;;;;;;4.10;3.03;;;2.00;99.90;;;;;;5025857;28;20227;-41
2022/11/20 01:43:22;;;;;;;4.00;2.93;;;2.00;99.90;;;;;;5008118;28;20339;-43
2022/11/20 01:46:14;;;;;;;3.67;2.90;;;2.00;99.90;;;;;;5025475;28;20212;-41
2022/11/20 01:48:47;;;;;;;2.50;2.30;;;2.00;99.90;;;;;;5017859;28;20207;-41
2022/11/20 01:51:23;;;;;;;4.10;2.90;;;2.00;99.90;;;;;;5017803;28;20231;-41
2022/11/20 01:53:52;;;;;;;4.33;2.83;;;1.90;99.90;;;;;;5024401;28;20210;-41
2022/11/20 01:56:19;;;;;;;3.27;2.97;;;1.90;99.90;;;;;;5022244;28;20234;-42
2022/11/20 01:58:52;;;;;;;2.90;2.60;;;1.90;99.90;;;;;;5008974;28;20200;-41
2022/11/20 02:01:19;;;;;;;3.50;2.90;;;1.80;99.90;;;;;;5021472;28;20199;-41
2022/11/20 02:03:47;;;;;;;6.30;3.33;;;1.90;99.90;;;;;;5016754;28;20204;-42
2022/11/20 02:06:23;;;;;;;3.67;3.20;;;1.90;99.90;;;;;;5020463;28;20212;-46
2022/11/20 02:08:52;;;;;;;6.83;3.40;;;1.90;99.90;;;;;;5020270;28;20215;-42
2022/11/20 02:11:19;;;;;;;3.00;2.70;;;1.90;99.90;;;;;;5021926;28;20200;-44
2022/11/20 02:13:46;;;;;;;4.20;3.03;;;1.90;99.90;;;;;;5008770;28;20204;-42
2022/11/20 02:16:15;;;;;;;3.63;2.67;;;1.90;99.90;;;;;;5022558;28;20219;-43
2022/11/20 02:18:44;;;;;;;3.67;2.97;;;1.90;99.90;;;;;;5015585;28;20220;-42
2022/11/20 02:21:22;;;;;;;5.00;3.10;;;1.90;99.90;;;;;;5023485;28;20204;-43
2022/11/20 02:24:02;;;;;;;3.67;2.83;;;1.90;99.90;;;;;;5023773;28;20196;-42
2022/11/20 02:26:31;;;;;;;6.70;3.23;;;1.90;99.90;;;;;;5018679;28;20211;-41
2022/11/20 02:29:00;;;;;;;2.97;2.50;;;1.90;99.90;;;;;;5010001;28;20683;-42
2022/11/20 02:31:26;;;;;;;5.57;3.00;;;1.80;99.90;;;;;;5019640;28;20270;-42
2022/11/20 02:33:56;;;;;;;3.43;3.13;;;1.90;99.90;;;;;;5017166;28;20543;-45
2022/11/20 02:36:25;;;;;;;4.27;3.10;;;1.80;99.90;;;;;;5020487;28;20235;-45
2022/11/20 02:38:52;;;;;;;3.63;2.90;;;1.80;99.90;;;;;;5024180;28;20235;-42
2022/11/20 02:41:20;;;;;;;3.10;2.80;;;1.80;99.90;;;;;;5021634;28;20661;-45
2022/11/20 02:43:47;;;;;;;3.87;2.67;;;1.80;99.90;;;;;;5008126;28;20216;-42
2022/11/20 02:46:14;;;;;;;4.17;2.60;;;1.80;99.90;;;;;;5022190;28;20277;-43
2022/11/20 02:48:41;;;;;;;3.53;2.87;;;1.80;99.90;;;;;;5021871;28;20192;-42
2022/11/20 02:51:08;;;;;;;4.37;3.07;;;1.80;99.90;;;;;;4965570;28;1484132;-43
2022/11/20 02:53:34;;;;;;;2.83;2.63;;;1.80;99.90;;;;;;5020982;28;20261;-41
2022/11/20 02:56:01;;;;;;;5.47;2.77;;;1.90;99.90;;;;;;5024694;28;20224;-43
2022/11/20 02:58:29;;;;;;;3.93;2.73;;;1.90;99.90;;;;;;5005964;28;20228;-44
2022/11/20 03:00:56;;;;;;;2.70;2.50;;;1.90;99.90;;;;;;5024330;28;20200;-43
2022/11/20 03:03:23;;;;;;;5.20;3.00;;;1.90;99.90;;;;;;5020580;28;20203;-43
2022/11/20 03:05:50;;;;;;;3.00;2.63;;;1.90;99.90;;;;;;5017771;28;20303;-43
2022/11/20 03:08:17;;;;;;;3.43;3.00;;;1.90;99.90;;;;;;5022716;28;20199;-44
2022/11/20 03:10:44;;;;;;;3.17;2.80;;;1.90;99.90;;;;;;5022876;28;20971;-41
2022/11/20 03:13:11;;;;;;;4.07;2.63;;;1.90;99.90;;;;;;5022697;28;20574;-46
2022/11/20 03:15:39;;;;;;;4.47;2.77;;;1.80;99.90;;;;;;5007035;28;20212;-42
2022/11/20 03:18:06;;;;;;;3.60;2.70;;;1.90;99.90;;;;;;5024001;28;20230;-42
2022/11/20 03:20:34;;;;;;;2.80;2.50;;;1.80;99.90;;;;;;5014625;28;20514;-41
2022/11/20 03:23:02;;;;;;;3.50;3.20;;;1.80;99.90;;;;;;5023837;28;20739;-41
2022/11/20 03:25:28;;;;;;;3.87;2.60;;;1.80;99.90;;;;;;5019896;28;20227;-43
2022/11/20 03:27:55;;;;;;;7.67;3.33;;;1.80;99.90;;;;;;5024441;28;20608;-44
2022/11/20 03:30:22;;;;;;;3.03;2.53;;;1.80;99.90;;;;;;5006617;28;20780;-47
2022/11/20 03:32:54;;;;;;;3.83;2.70;;;1.80;99.90;;;;;;5021726;28;20208;-43
2022/11/20 03:35:21;;;;;;;2.73;2.50;;;1.80;99.90;;;;;;5020794;28;20303;-46
2022/11/20 03:37:48;;;;;;;3.47;3.03;;;1.80;99.90;;;;;;5016907;28;20220;-42
2022/11/20 03:40:15;;;;;;;3.43;2.87;;;1.80;99.90;;;;;;5022133;28;20242;-45
2022/11/20 03:42:48;;;;;;;3.63;2.83;;;1.90;99.90;;;;;;5020759;28;20211;-42
2022/11/20 03:45:16;;;;;;;3.07;2.53;;;1.80;99.90;;;;;;5014884;28;20775;-44
2022/11/20 03:47:43;;;;;;;3.70;2.70;;;1.80;99.90;;;;;;5016431;28;20196;-42
2022/11/20 03:50:13;;;;;;;4.90;2.93;;;1.80;99.90;;;;;;5022982;28;20242;-42
2022/11/20 03:52:41;;;;;;;3.40;2.70;;;1.80;99.90;;;;;;5014753;28;20456;-42
2022/11/20 03:55:08;;;;;;;3.80;2.70;;;1.80;99.90;;;;;;5021790;28;20731;-43
2022/11/20 03:57:35;;;;;;;3.60;2.67;;;1.80;99.90;;;;;;5020430;28;20234;-42
2022/11/20 04:00:02;;;;;;;2.70;2.37;;;1.80;99.90;;;;;;5023596;28;20204;-42
2022/11/20 04:02:31;;;;;;;3.50;2.60;;;1.80;99.90;;;;;;5004803;28;20211;-42
2022/11/20 04:04:57;;;;;;;2.20;2.00;;;1.80;99.90;;;;;;5023095;28;20273;-42
2022/11/20 04:07:26;;;;;;;2.77;2.50;;;1.80;99.90;;;;;;5012947;28;20192;-46
2022/11/20 04:09:52;;;;;;;4.10;2.40;;;1.80;99.90;;;;;;5019881;28;20210;-42
2022/11/20 04:12:19;;;;;;;3.37;2.50;;;1.90;99.90;;;;;;5019709;28;20204;-44
2022/11/20 04:14:46;;;;;;;2.90;2.60;;;1.90;99.90;;;;;;5022104;28;20685;-43
2022/11/20 04:17:13;;;;;;;6.10;2.63;;;1.80;99.90;;;;;;5006955;28;20219;-45
2022/11/20 04:19:40;;;;;;;3.27;3.03;;;1.80;99.90;;;;;;5020912;28;20229;-43
2022/11/20 04:22:06;;;;;;;4.90;2.70;;;1.80;99.90;;;;;;5022914;28;20257;-44
2022/11/20 04:24:35;;;;;;;3.23;2.47;;;1.80;99.90;;;;;;5013112;28;20220;-41
2022/11/20 04:27:01;;;;;;;3.17;2.30;;;1.80;99.90;;;;;;5023302;28;20951;-41
2022/11/20 04:29:28;;;;;;;4.00;2.80;;;1.80;99.90;;;;;;5019320;28;20209;-41
2022/11/20 04:31:55;;;;;;;3.40;2.53;;;1.80;99.90;;;;;;5008556;28;20211;-42
2022/11/20 04:34:22;;;;;;;3.43;2.33;;;1.80;99.90;;;;;;5019854;28;20224;-41
2022/11/20 04:36:49;;;;;;;3.23;2.80;;;1.80;99.90;;;;;;5018925;28;20202;-41
2022/11/20 04:39:16;;;;;;;3.03;2.73;;;1.70;99.90;;;;;;5018198;28;20306;-41
2022/11/20 04:41:44;;;;;;;4.70;3.13;;;1.80;99.90;;;;;;5017853;28;20203;-42
2022/11/20 04:44:12;;;;;;;2.57;2.37;;;1.80;99.90;;;;;;5021677;28;20214;-43
2022/11/20 04:46:40;;;;;;;3.20;2.90;;;1.80;99.90;;;;;;5020223;28;20325;-42
2022/11/20 04:49:08;;;;;;;4.03;2.37;;;1.80;99.90;;;;;;5008054;28;20569;-42
2022/11/20 04:51:36;;;;;;;2.87;2.67;;;1.80;99.90;;;;;;5019275;28;20929;-41
2022/11/20 04:54:03;;;;;;;3.00;2.80;;;1.80;99.90;;;;;;5022837;28;20212;-42
2022/11/20 04:56:30;;;;;;;2.83;2.60;;;1.80;99.90;;;;;;5012349;28;20204;-41
2022/11/20 04:59:01;;;;;;;5.10;3.10;;;1.70;99.90;;;;;;5022680;28;20250;-41
2022/11/20 05:01:28;;;;;;;3.67;2.80;;;1.70;99.90;;;;;;5011036;28;20204;-41
2022/11/20 05:03:54;;;;;;;3.43;3.00;;;1.80;99.90;;;;;;5004841;28;20204;-41
2022/11/20 05:06:22;;;;;;;2.77;2.57;;;1.70;99.90;;;;;;5018929;28;20220;-43
2022/11/20 05:08:49;;;;;;;3.50;2.97;;;1.70;99.90;;;;;;5014181;28;20204;-43
2022/11/20 05:11:19;;;;;;;3.20;2.60;;;1.70;99.90;;;;;;5013796;28;20200;-41
2022/11/20 05:13:46;;;;;;;3.37;2.50;;;1.70;99.90;;;;;;5022445;28;20203;-49
2022/11/20 05:16:16;;;;;;;3.53;2.60;;;1.80;99.90;;;;;;5012792;28;20306;-43
2022/11/20 05:18:45;;;;;;;5.17;3.10;;;1.70;99.90;;;;;;5022726;28;20739;-41
2022/11/20 05:21:14;;;;;;;4.27;3.03;;;1.70;99.90;;;;;;5000198;28;20200;-42
2022/11/20 05:23:41;;;;;;;3.17;2.50;;;1.70;99.90;;;;;;5022358;28;20203;-41
2022/11/20 05:26:13;;;;;;;3.53;2.90;;;1.70;99.90;;;;;;5008008;28;20223;-41
2022/11/20 05:28:40;;;;;;;2.30;2.10;;;1.70;99.90;;;;;;5022837;28;20192;-41
2022/11/20 05:31:07;;;;;;;3.80;2.90;;;1.70;99.90;;;;;;5018646;28;20200;-46
2022/11/20 05:33:36;;;;;;;2.87;2.30;;;1.70;99.90;;;;;;5021923;28;20196;-41
2022/11/20 05:36:04;;;;;;;3.00;2.67;;;1.70;99.90;;;;;;5001172;28;20247;-43
2022/11/20 05:38:31;;;;;;;4.87;2.80;;;1.70;99.90;;;;;;5025624;28;20216;-42
2022/11/20 05:41:04;;;;;;;2.50;2.30;;;1.70;99.90;;;;;;5020274;28;20200;-43
2022/11/20 05:43:33;;;;;;;3.87;2.40;;;1.70;99.90;;;;;;5024357;28;20590;-41
2022/11/20 05:46:00;;;;;;;2.40;2.20;;;1.70;99.90;;;;;;5022873;28;20869;-42
2022/11/20 05:48:27;;;;;;;2.77;2.47;;;1.70;99.90;;;;;;5025251;28;20194;-41
2022/11/20 05:50:57;;;;;;;2.63;2.33;;;1.70;99.90;;;;;;5010115;28;20219;-42
2022/11/20 05:53:23;;;;;;;2.53;2.27;;;1.60;99.90;;;;;;5016629;28;20212;-42
2022/11/20 05:55:57;;;;;;;2.60;2.40;;;1.60;99.90;;;;;;5024665;28;20270;-41
2022/11/20 05:58:24;;;;;;;3.13;2.37;;;1.60;99.90;;;;;;5015765;28;20216;-41
2022/11/20 06:00:51;;;;;;;3.23;2.60;;;1.70;99.90;;;;;;5024831;28;20246;-46
2022/11/20 06:03:18;;;;;;;2.83;2.27;;;1.60;99.90;;;;;;5022978;28;20266;-41
2022/11/20 06:05:45;;;;;;;4.93;2.73;;;1.60;99.90;;;;;;5025636;28;20226;-41
2022/11/20 06:08:15;;;;;;;2.87;2.67;;;1.60;99.90;;;;;;5002330;28;20485;-43
2022/11/20 06:10:41;;;;;;;3.23;2.37;;;1.60;99.90;;;;;;5010239;28;20665;-41
2022/11/20 06:13:08;;;;;;;2.73;2.20;;;1.60;99.90;;;;;;5014486;28;20223;-41
2022/11/20 06:15:35;;;;;;;5.13;3.07;;;1.50;99.90;;;;;;5003855;28;20228;-44
2022/11/20 06:18:02;;;;;;;3.07;2.63;;;1.50;99.90;;;;;;5016050;28;20253;-42
2022/11/20 06:20:29;;;;;;;2.97;2.43;;;1.50;99.90;;;;;;5021304;28;20242;-43
2022/11/20 06:22:56;;;;;;;5.10;3.63;;;1.50;99.90;;;;;;5004998;28;20204;-41
2022/11/20 06:25:25;;;;;;;5.20;2.80;;;1.50;99.90;;;;;;5015062;28;20215;-44
2022/11/20 06:27:53;;;;;;;3.07;2.30;;;1.50;99.90;;;;;;5003160;28;20236;-41
2022/11/20 06:30:19;;;;;;;8.77;2.63;;;1.50;99.90;;;;;;5017681;28;20204;-42
2022/11/20 06:32:46;;;;;;;2.57;2.33;;;1.40;99.90;;;;;;5011070;28;20215;-44
2022/11/20 06:35:13;;;;;;;2.93;2.27;;;1.40;99.90;;;;;;5013657;28;20727;-41
2022/11/20 06:37:39;;;;;;;3.07;2.50;;;1.40;99.90;;;;;;5007621;28;20196;-43
2022/11/20 06:40:08;;;;;;;2.43;2.23;;;1.40;99.90;;;;;;5017674;28;20212;-42
2022/11/20 06:42:36;;;;;;;2.70;2.50;;;1.40;99.90;;;;;;5011809;28;20565;-41
2022/11/20 06:45:04;;;;;;;4.27;2.50;;;1.40;99.90;;;;;;5014008;28;20219;-42
2022/11/20 06:47:30;;;;;;;3.27;2.27;;;1.40;99.90;;;;;;5012785;28;20203;-43
2022/11/20 06:49:57;;;;;;;2.80;2.37;;;1.40;99.90;;;;;;5009535;28;20419;-41
2022/11/20 06:52:24;;;;;;;3.23;2.73;;;1.40;99.90;;;;;;5022090;28;21813;-45
2022/11/20 06:54:51;;;;;;;3.90;3.27;;;1.40;99.90;;;;;;5004164;28;20212;-42
2022/11/20 06:57:18;;;;;;;4.57;2.77;;;1.40;99.90;;;;;;5019343;28;20258;-41
2022/11/20 06:59:46;;;;;;;3.27;2.83;;;1.40;99.90;;;;;;5011011;28;20721;-41
2022/11/20 07:02:13;;;;;;;4.27;3.13;;;1.40;99.90;;;;;;4999240;28;20204;-43
2022/11/20 07:04:40;;;;;;;3.47;2.80;;;1.40;99.90;;;;;;5019087;28;20214;-41
2022/11/20 07:07:07;;;;;;;3.63;3.07;;;1.40;99.90;;;;;;5008426;28;20282;-41
2022/11/20 07:09:34;;;;;;;3.83;3.43;;;1.40;99.90;;;;;;5003702;28;20271;-41
2022/11/20 07:12:01;;;;;;;4.10;2.87;;;1.40;99.90;;;;;;5016546;28;20199;-41
2022/11/20 07:14:28;;;;;;;3.67;3.23;;;1.40;99.90;;;;;;5007294;28;20249;-41
2022/11/20 07:16:57;;;;;;;3.03;2.70;;;1.40;99.90;;;;;;5012934;28;20283;-41
2022/11/20 07:19:23;;;;;;;3.20;2.90;;;1.50;99.90;;;;;;5015798;28;20247;-45
2022/11/20 07:21:50;;;;;;;4.47;3.77;;;1.40;99.90;;;;;;5003169;28;20208;-41
2022/11/20 07:24:17;;;;;;;3.70;2.87;;;1.50;99.90;;;;;;5012231;28;20365;-44
2022/11/20 07:26:47;;;;;;;3.50;2.60;;;1.50;99.90;;;;;;5006240;28;20226;-41
2022/11/20 07:29:13;;;;;;;3.50;2.93;;;1.50;99.90;;;;;;5004132;28;20279;-43
2022/11/20 07:31:40;;;;;;;4.00;3.60;;;1.50;99.90;;;;;;5015957;28;20672;-41
2022/11/20 07:34:09;;;;;;;3.63;3.10;;;1.50;99.90;;;;;;5008621;28;20209;-42
2022/11/20 07:36:36;;;;;;;3.33;3.00;;;1.60;99.90;;;;;;5019184;28;20265;-41
2022/11/20 07:39:03;;;;;;;3.80;3.50;;;1.60;99.90;;;;;;5005083;28;20630;-42
2022/11/20 07:41:31;;;;;;;5.53;3.07;;;1.60;99.90;;;;;;5004635;28;20389;-46
2022/11/20 07:43:57;;;;;;;3.97;3.50;;;1.60;99.90;;;;;;5013922;28;20258;-44
2022/11/20 07:46:25;;;;;;;3.50;3.20;;;1.60;99.90;;;;;;5009039;28;20201;-42
2022/11/20 07:48:51;;;;;;;3.27;2.97;;;1.70;99.90;;;;;;5008163;28;20258;-43
2022/11/20 07:51:20;;;;;;;4.13;3.57;;;1.70;99.90;;;;;;5014092;28;20457;-41
2022/11/20 07:53:46;;;;;;;3.67;3.33;;;1.70;99.90;;;;;;5002992;28;20204;-42
2022/11/20 07:56:13;;;;;;;3.77;3.33;;;1.70;99.90;;;;;;4996839;28;20228;-44
2022/11/20 07:58:40;;;;;;;4.03;3.00;;;1.70;99.90;;;;;;5020263;28;20223;-45
2022/11/20 08:01:08;;;;;;;3.10;2.90;;;1.70;99.90;;;;;;5012297;28;20218;-43
2022/11/20 08:03:38;;;;;;;3.90;3.50;;;1.70;99.90;;;;;;5015963;28;20207;-44
2022/11/20 08:06:05;;;;;;;3.97;3.60;;;1.70;99.90;;;;;;5011432;28;20288;-46
2022/11/20 08:08:33;;;;;;;4.50;3.27;;;1.70;99.90;;;;;;5006780;28;20216;-43
2022/11/20 08:16:26;;;;;;;3.77;3.40;;;1.80;99.90;;;;;;5007317;28;20196;-42
2022/11/20 08:18:53;;;;;;;3.27;3.07;;;1.80;99.90;;;;;;5001862;28;20215;-41
2022/11/20 08:21:20;;;;;;;5.17;3.00;;;1.80;99.90;;;;;;5014408;28;20214;-42
2022/11/20 08:23:51;;;;;;;3.80;3.47;;;1.80;99.90;;;;;;5019289;28;20230;-42
2022/11/20 08:26:18;;;;;;;3.50;3.20;;;1.70;99.90;;;;;;5022658;28;20265;-47
2022/11/20 08:28:45;;;;;;;4.57;3.70;;;1.70;99.90;;;;;;5003145;28;20274;-41
2022/11/20 08:31:11;;;;;;;3.57;3.00;;;1.70;99.90;;;;;;5011206;28;20243;-42
2022/11/20 08:33:38;;;;;;;4.63;3.23;;;1.70;99.90;;;;;;5011996;28;20207;-42
2022/11/20 08:36:06;;;;;;;4.13;3.80;;;1.70;99.90;;;;;;5013621;28;20279;-41
2022/11/20 08:38:33;;;;;;;3.53;3.20;;;1.70;99.90;;;;;;5019574;28;20200;-43
2022/11/20 08:43:48;;;;;;;3.57;3.27;;;1.70;99.90;;;;;;4999699;28;21214;-43
2022/11/20 08:46:15;;;;;;;4.00;3.60;;;1.70;99.90;;;;;;5022531;28;20768;-45
2022/11/20 08:48:42;;;;;;;8.57;3.87;;;1.70;99.90;;;;;;5010527;28;21273;-41
2022/11/20 08:51:09;;;;;;;4.00;3.13;;;1.60;99.90;;;;;;5004405;28;20567;-41
2022/11/20 08:53:36;;;;;;;6.13;3.60;;;1.60;99.90;;;;;;5017809;28;20735;-42
2022/11/20 08:56:05;;;;;;;5.10;4.30;;;1.60;99.90;;;;;;5015895;28;20220;-45
2022/11/20 08:58:31;;;;;;;5.60;3.90;;;1.60;99.90;;;;;;5022137;28;20192;-42
2022/11/20 09:00:58;;;;;;;5.23;4.00;;;1.60;99.90;;;;;;5004590;28;20230;-45
2022/11/20 09:03:26;;;;;;;7.83;4.10;;;1.70;99.90;;;;;;5011066;28;20210;-42
2022/11/20 09:05:58;;;;;;;4.07;3.63;;;1.60;99.90;;;;;;5009163;28;20577;-43
2022/11/20 09:08:25;;;;;;;5.53;3.80;;;1.60;99.90;;;;;;5010545;28;20208;-41
2022/11/20 09:10:52;;;;;;;3.97;3.57;;;1.70;99.90;;;;;;5020340;28;20192;-43
2022/11/20 09:13:20;;;;;;;3.77;3.47;;;1.70;99.90;;;;;;5013164;28;20275;-43
2022/11/20 09:15:47;;;;;;;4.23;3.50;;;1.60;99.90;;;;;;5005093;28;20589;-42
2022/11/20 09:18:14;;;;;;;6.67;3.77;;;1.70;99.90;;;;;;5013804;28;20287;-43
2022/11/20 09:20:41;;;;;;;4.47;3.70;;;1.80;99.90;;;;;;5020546;28;20224;-42
2022/11/20 09:23:08;;;;;;;3.87;3.57;;;1.80;99.90;;;;;;5011876;28;20687;-41
2022/11/20 09:25:35;;;;;;;6.57;3.83;;;1.80;99.90;;;;;;5024749;28;20295;-41
2022/11/20 09:28:02;;;;;;;4.10;3.70;;;1.80;99.90;;;;;;5024530;28;20314;-44
2022/11/20 09:30:30;;;;;;;6.57;4.10;;;1.90;99.90;;;;;;5007035;28;20557;-42
2022/11/20 09:32:59;;;;;;;3.87;3.30;;;1.90;99.90;;;;;;5021073;28;20200;-45
2022/11/20 09:35:26;;;;;;;4.33;3.93;;;1.90;99.90;;;;;;5012593;28;20216;-42
2022/11/20 09:37:53;;;;;;;4.07;3.70;;;2.00;99.90;;;;;;5018118;28;20570;-43
2022/11/20 09:40:22;;;;;;;4.07;3.67;;;2.00;99.90;;;;;;5015473;28;20216;-42
2022/11/20 09:42:56;;;;;;;3.97;3.57;;;2.00;99.90;;;;;;5020477;28;20200;-41
2022/11/20 09:45:37;;;;;;;3.50;3.20;;;2.00;99.90;;;;;;5009851;28;20223;-41
2022/11/20 09:48:41;;;;;;;7.00;3.53;;;2.10;99.90;;;;;;5007491;28;20195;-42
2022/11/20 09:51:24;;;;;;;3.37;3.07;;;2.10;99.90;;;;;;5000717;28;20199;-43
2022/11/20 09:54:06;;;;;;;3.40;3.10;;;2.10;99.90;;;;;;5025053;28;20234;-41
2022/11/20 09:56:35;;;;;;;3.57;3.17;;;2.10;99.90;;;;;;5016122;28;20210;-43
2022/11/20 09:59:06;;;;;;;3.87;2.93;;;2.10;99.90;;;;;;5009649;28;20220;-44
2022/11/20 10:01:38;;;;;;;4.27;3.30;;;2.10;99.90;;;;;;5002086;28;20310;-42
2022/11/20 10:04:11;;;;;;;3.80;3.47;;;2.10;99.90;;;;;;5017476;28;20203;-46
2022/11/20 10:06:43;;;;;;;2.80;2.60;;;2.10;99.90;;;;;;5006665;28;20213;-41
2022/11/20 10:09:22;;;;;;;3.27;3.00;;;2.10;99.90;;;;;;5013027;28;20196;-42
2022/11/20 10:11:57;;;;;;;3.63;3.00;;;2.10;99.90;;;;;;5025332;28;20287;-41
2022/11/20 10:14:32;;;;;;;3.20;2.90;;;2.10;99.90;;;;;;5023367;28;20960;-41
2022/11/20 10:17:06;;;;;;;4.03;2.60;;;2.20;99.90;;;;;;5010380;28;20192;-44
2022/11/20 10:19:48;;;;;;;3.30;3.00;;;2.20;99.90;;;;;;5022149;28;20219;-45
2022/11/20 10:22:28;;;;;;;5.23;3.23;;;2.30;99.90;;;;;;5000941;28;21210;-43
2022/11/20 10:24:57;;;;;;;4.63;2.97;;;2.30;99.90;;;;;;5023475;28;20215;-45
2022/11/20 10:27:46;;;;;;;3.53;3.13;;;2.30;99.90;;;;;;5021086;28;20200;-44
2022/11/20 10:30:17;;;;;;;3.67;3.10;;;2.30;99.90;;;;;;5021485;28;20303;-45
2022/11/20 10:32:49;;;;;;;3.53;3.23;;;2.40;99.90;;;;;;5008584;28;20223;-43
2022/11/20 10:35:22;;;;;;;3.10;2.80;;;2.40;99.90;;;;;;5016784;28;20215;-42
2022/11/20 10:37:56;;;;;;;2.97;2.77;;;2.40;99.90;;;;;;5016674;28;20308;-42
2022/11/20 10:40:29;;;;;;;3.23;2.80;;;2.40;99.90;;;;;;5016285;28;20922;-42
2022/11/20 10:42:58;;;;;;;3.07;2.83;;;2.40;99.90;;;;;;5023394;28;20280;-43
2022/11/20 10:45:45;;;;;;;2.87;2.67;;;2.30;99.90;;;;;;5022815;28;20212;-42
2022/11/20 10:48:17;;;;;;;2.97;2.77;;;2.30;99.90;;;;;;5006069;28;20269;-42
2022/11/20 10:50:55;;;;;;;3.23;2.90;;;2.30;99.90;;;;;;5019169;28;20197;-44
2022/11/20 10:53:41;;;;;;;3.87;3.50;;;2.40;99.90;;;;;;5008582;28;20223;-42
2022/11/20 10:56:17;;;;;;;3.70;3.40;;;2.40;99.90;;;;;;5015989;28;20223;-43
2022/11/20 10:58:53;;;;;;;3.43;3.13;;;2.40;99.90;;;;;;5022902;28;20203;-42
2022/11/20 11:01:22;;;;;;;2.90;2.70;;;2.40;99.90;;;;;;5016253;28;20969;-41
2022/11/20 11:03:53;;;;;;;3.00;2.80;;;2.40;99.90;;;;;;5009327;28;20688;-42
2022/11/20 11:06:28;;;;;;;3.40;3.10;;;2.40;99.90;;;;;;5020775;28;20211;-43
2022/11/20 11:08:59;;;;;;;3.00;2.80;;;2.30;99.90;;;;;;5022989;28;20203;-42
2022/11/20 11:11:29;;;;;;;4.37;2.87;;;2.30;99.90;;;;;;5016955;28;20195;-41
2022/11/20 11:14:05;;;;;;;3.13;2.80;;;2.40;99.90;;;;;;5007634;28;20876;-41
2022/11/20 11:16:33;;;;;;;3.00;2.70;;;2.40;99.90;;;;;;5021587;28;20195;-42
2022/11/20 11:19:13;;;;;;;4.33;3.20;;;2.40;99.90;;;;;;5006987;28;20374;-42
2022/11/20 11:21:47;;;;;;;2.80;2.60;;;2.50;99.90;;;;;;5015708;28;20234;-47
2022/11/20 11:24:21;;;;;;;3.00;2.53;;;2.60;99.90;;;;;;5022939;28;20196;-42
2022/11/20 11:26:54;;;;;;;2.50;2.30;;;2.60;99.90;;;;;;5014169;28;20301;-44
2022/11/20 11:29:21;;;;;;;2.43;2.23;;;2.60;99.90;;;;;;5021980;28;20227;-41
2022/11/20 11:31:47;;;;;;;2.60;2.40;;;2.60;99.90;;;;;;5018722;28;20960;-46
2022/11/20 11:34:17;;;;;;;3.03;2.03;;;2.60;99.90;;;;;;5008317;28;20196;-42
2022/11/20 11:36:58;;;;;;;2.10;2.00;;;2.60;99.90;;;;;;5019622;28;20224;-43
2022/11/20 11:39:27;;;;;;;2.10;1.90;;;2.70;99.90;;;;;;5015481;28;20192;-45
2022/11/20 11:41:55;;;;;;;2.30;2.10;;;2.60;99.90;;;;;;5016430;28;20289;-42
2022/11/20 11:47:22;;;;;;;2.10;2.00;;;2.70;99.90;;;;;;5017416;28;20352;-42
2022/11/20 11:50:01;;;;;;;2.27;2.10;;;2.70;99.90;;;;;;5003061;28;20214;-43
2022/11/20 11:52:29;;;;;;;2.20;2.00;;;2.70;99.90;;;;;;5017457;28;20207;-45
2022/11/20 11:55:00;;;;;;;2.20;2.00;;;2.80;99.90;;;;;;5009277;28;20234;-51
2022/11/20 11:57:35;;;;;;;3.33;2.23;;;2.80;99.90;;;;;;5021853;28;20258;-43
2022/11/20 12:00:07;;;;;;;1.97;1.87;;;2.90;99.90;;;;;;5022191;28;20711;-42
2022/11/20 12:02:38;;;;;;;3.27;2.40;;;2.90;99.90;;;;;;5011312;28;20212;-43
2022/11/20 12:05:17;;;;;;;2.60;2.40;;;2.90;99.90;;;;;;5006519;28;20771;-44
2022/11/20 12:07:47;;;;;;;2.93;2.43;;;2.90;99.90;;;;;;5016421;28;20888;-42
2022/11/20 12:10:22;;;;;;;2.10;1.90;;;2.90;99.90;;;;;;5020041;28;20283;-42
2022/11/20 12:12:55;;;;;;;2.57;2.30;;;3.00;99.90;;;;;;5012658;28;20899;-42
2022/11/20 12:15:34;;;;;;;2.53;2.33;;;2.90;99.90;;;;;;5020971;28;20219;-43
2022/11/20 12:18:01;;;;;;;2.60;2.40;;;3.00;99.90;;;;;;5022460;28;20222;-44
2022/11/20 12:20:36;;;;;;;2.20;1.90;;;3.00;99.90;;;;;;5007157;28;20761;-43
2022/11/20 12:23:10;;;;;;;2.17;2.03;;;3.00;99.90;;;;;;5012931;28;20203;-42
2022/11/20 12:25:39;;;;;;;2.17;1.97;;;3.00;99.90;;;;;;5007768;28;20251;-46
2022/11/20 12:28:29;;;;;;;2.37;2.17;;;3.00;99.90;;;;;;5014851;28;20208;-42
2022/11/20 12:31:21;;;;;;;2.00;1.90;;;3.10;99.90;;;;;;5010541;28;20217;-42
2022/11/20 12:34:04;;;;;;;2.37;2.27;;;3.10;99.90;;;;;;5015877;28;20198;-41
2022/11/20 12:36:41;;;;;;;2.20;2.00;;;3.20;99.90;;;;;;4996357;28;20294;-44
2022/11/20 12:39:33;;;;;;;2.17;1.97;;;3.20;99.90;;;;;;5016318;28;20227;-44
2022/11/20 12:45:42;;;;;;;2.40;2.00;;;3.20;99.90;;;;;;5016743;28;20212;-43
2022/11/20 12:48:49;;;;;;;2.07;1.97;;;3.20;99.90;;;;;;4983583;28;20213;-44
2022/11/20 12:51:31;;;;;;;1.83;1.73;;;3.20;99.90;;;;;;5008844;28;20211;-44
2022/11/20 12:54:21;;;;;;;2.10;1.90;;;3.20;99.90;;;;;;5019764;28;20206;-43
2022/11/20 12:56:56;;;;;;;2.23;2.03;;;3.20;99.90;;;;;;5010971;28;20384;-44
2022/11/20 12:59:49;;;;;;;2.33;1.83;;;3.20;99.90;;;;;;5025453;28;20223;-45
2022/11/20 13:02:26;;;;;;;1.57;1.37;;;3.10;99.90;;;;;;5012730;28;20750;-44
2022/11/20 13:05:18;;;;;;;2.10;1.90;;;3.10;99.90;;;;;;5019213;28;20243;-43
2022/11/20 13:07:46;;;;;;;2.33;2.17;;;3.10;99.90;;;;;;5002213;28;20207;-43
2022/11/20 13:10:22;;;;;;;2.20;2.10;;;3.20;99.90;;;;;;5023826;28;20200;-42
2022/11/20 13:12:56;;;;;;;2.20;1.60;;;3.20;99.90;;;;;;5007308;28;20550;-46
2022/11/20 13:15:34;;;;;;;3.43;1.80;;;3.20;99.90;;;;;;5016634;28;20220;-43
2022/11/20 13:18:03;;;;;;;2.30;2.07;;;3.20;99.90;;;;;;5012191;28;20204;-45
2022/11/20 13:20:32;;;;;;;2.17;1.97;;;3.20;99.90;;;;;;5022498;28;20216;-46
2022/11/20 13:22:59;;;;;;;2.20;2.00;;;3.20;99.90;;;;;;5010389;28;20450;-44
2022/11/20 13:25:30;;;;;;;2.30;2.10;;;3.20;99.90;;;;;;5020705;28;20217;-46
2022/11/20 13:27:58;;;;;;;3.13;2.83;;;3.20;99.90;;;;;;5011752;28;20196;-44